sensor_id;sensor_type;location;lat;lon;timestamp;temperature;humidity
6252;DHT22;3159;52.414;9.784;2023-07-24T00:00:45;19.70;99.90
6252;DHT22;3159;52.414;9.784;2023-07-24T00:03:12;19.60;99.90
6252;DHT22;3159;52.414;9.784;2023-07-24T00:05:39;19.60;99.90
6252;DHT22;3159;52.414;9.784;2023-07-24T00:08:07;19.50;99.90
6252;DHT22;3159;52.414;9.784;2023-07-24T00:10:34;19.50;99.90
6252;DHT22;3159;52.414;9.784;2023-07-24T00:13:01;19.50;99.90
6252;DHT22;3159;52.414;9.784;2023-07-24T00:15:28;19.50;99.90
6252;DHT22;3159;52.414;9.784;2023-07-24T00:17:55;19.50;99.90
6252;DHT22;3159;52.414;9.784;2023-07-24T00:20:22;19.50;99.90
6252;DHT22;3159;52.414;9.784;2023-07-24T00:22:50;19.50;99.90
6252;DHT22;3159;52.414;9.784;2023-07-24T00:25:18;19.60;99.90
6252;DHT22;3159;52.414;9.784;2023-07-24T00:27:45;19.60;99.90
6252;DHT22;3159;52.414;9.784;2023-07-24T00:30:12;19.60;99.90
6252;DHT22;3159;52.414;9.784;2023-07-24T00:32:39;19.60;99.90
6252;DHT22;3159;52.414;9.784;2023-07-24T00:35:07;19.60;99.90
6252;DHT22;3159;52.414;9.784;2023-07-24T00:37:33;19.50;99.90
6252;DHT22;3159;52.414;9.784;2023-07-24T00:40:00;19.60;99.90
6252;DHT22;3159;52.414;9.784;2023-07-24T00:42:29;19.60;99.90
6252;DHT22;3159;52.414;9.784;2023-07-24T00:44:56;19.60;99.90
6252;DHT22;3159;52.414;9.784;2023-07-24T00:47:23;19.50;99.90
6252;DHT22;3159;52.414;9.784;2023-07-24T00:49:51;19.50;99.90
6252;DHT22;3159;52.414;9.784;2023-07-24T00:52:18;19.60;99.90
6252;DHT22;3159;52.414;9.784;2023-07-24T00:54:45;19.60;99.90
6252;DHT22;3159;52.414;9.784;2023-07-24T00:57:13;19.60;99.90
6252;DHT22;3159;52.414;9.784;2023-07-24T00:59:42;19.50;99.90
6252;DHT22;3159;52.414;9.784;2023-07-24T01:02:09;19.50;99.90
6252;DHT22;3159;52.414;9.784;2023-07-24T01:04:37;19.50;99.90
6252;DHT22;3159;52.414;9.784;2023-07-24T01:07:04;19.50;99.90
6252;DHT22;3159;52.414;9.784;2023-07-24T01:09:31;19.50;99.90
6252;DHT22;3159;52.414;9.784;2023-07-24T01:12:02;19.40;99.90
6252;DHT22;3159;52.414;9.784;2023-07-24T01:14:36;19.50;99.90
6252;DHT22;3159;52.414;9.784;2023-07-24T01:17:10;19.50;99.90
6252;DHT22;3159;52.414;9.784;2023-07-24T01:19:39;19.40;99.90
6252;DHT22;3159;52.414;9.784;2023-07-24T01:22:12;19.50;99.90
6252;DHT22;3159;52.414;9.784;2023-07-24T01:24:52;19.50;99.90
6252;DHT22;3159;52.414;9.784;2023-07-24T01:27:25;19.50;99.90
6252;DHT22;3159;52.414;9.784;2023-07-24T01:29:52;19.50;99.90
6252;DHT22;3159;52.414;9.784;2023-07-24T01:32:19;19.50;99.90
6252;DHT22;3159;52.414;9.784;2023-07-24T01:34:47;19.50;99.90
6252;DHT22;3159;52.414;9.784;2023-07-24T01:37:14;19.50;99.90
6252;DHT22;3159;52.414;9.784;2023-07-24T01:39:43;19.50;99.90
6252;DHT22;3159;52.414;9.784;2023-07-24T01:42:11;19.50;99.90
6252;DHT22;3159;52.414;9.784;2023-07-24T01:44:39;19.40;99.90
6252;DHT22;3159;52.414;9.784;2023-07-24T01:47:06;19.50;99.90
6252;DHT22;3159;52.414;9.784;2023-07-24T01:49:33;19.60;99.90
6252;DHT22;3159;52.414;9.784;2023-07-24T01:52:00;19.50;99.90
6252;DHT22;3159;52.414;9.784;2023-07-24T01:54:27;19.40;99.90
6252;DHT22;3159;52.414;9.784;2023-07-24T01:56:54;19.40;99.90
6252;DHT22;3159;52.414;9.784;2023-07-24T01:59:21;19.30;99.90
6252;DHT22;3159;52.414;9.784;2023-07-24T02:01:49;19.30;99.90
6252;DHT22;3159;52.414;9.784;2023-07-24T02:04:16;19.40;99.90
6252;DHT22;3159;52.414;9.784;2023-07-24T02:06:42;19.40;99.90
6252;DHT22;3159;52.414;9.784;2023-07-24T02:09:10;19.40;99.90
6252;DHT22;3159;52.414;9.784;2023-07-24T02:11:37;19.40;99.90
6252;DHT22;3159;52.414;9.784;2023-07-24T02:14:04;19.30;99.90
6252;DHT22;3159;52.414;9.784;2023-07-24T02:16:30;19.40;99.90
6252;DHT22;3159;52.414;9.784;2023-07-24T02:18:59;19.40;99.90
6252;DHT22;3159;52.414;9.784;2023-07-24T02:21:25;19.40;99.90
6252;DHT22;3159;52.414;9.784;2023-07-24T02:23:52;19.30;99.90
6252;DHT22;3159;52.414;9.784;2023-07-24T02:26:19;19.30;99.90
6252;DHT22;3159;52.414;9.784;2023-07-24T02:28:46;19.40;99.90
6252;DHT22;3159;52.414;9.784;2023-07-24T02:31:13;19.30;99.90
6252;DHT22;3159;52.414;9.784;2023-07-24T02:33:40;19.40;99.90
6252;DHT22;3159;52.414;9.784;2023-07-24T02:36:08;19.40;99.90
6252;DHT22;3159;52.414;9.784;2023-07-24T02:38:35;19.40;99.90
6252;DHT22;3159;52.414;9.784;2023-07-24T02:41:02;19.40;99.90
6252;DHT22;3159;52.414;9.784;2023-07-24T02:43:29;19.30;99.90
6252;DHT22;3159;52.414;9.784;2023-07-24T02:46:00;19.40;99.90
6252;DHT22;3159;52.414;9.784;2023-07-24T02:48:27;19.40;99.90
6252;DHT22;3159;52.414;9.784;2023-07-24T02:50:54;19.50;99.90
6252;DHT22;3159;52.414;9.784;2023-07-24T02:53:23;19.40;99.90
6252;DHT22;3159;52.414;9.784;2023-07-24T02:55:49;19.50;99.90
6252;DHT22;3159;52.414;9.784;2023-07-24T02:58:16;19.40;99.90
6252;DHT22;3159;52.414;9.784;2023-07-24T03:00:43;19.40;99.90
6252;DHT22;3159;52.414;9.784;2023-07-24T03:03:10;19.40;99.90
6252;DHT22;3159;52.414;9.784;2023-07-24T03:05:37;19.30;99.90
6252;DHT22;3159;52.414;9.784;2023-07-24T03:08:04;19.30;99.90
6252;DHT22;3159;52.414;9.784;2023-07-24T03:10:32;19.30;99.90
6252;DHT22;3159;52.414;9.784;2023-07-24T03:12:59;19.30;99.90
6252;DHT22;3159;52.414;9.784;2023-07-24T03:15:25;19.40;99.90
6252;DHT22;3159;52.414;9.784;2023-07-24T03:17:52;19.40;99.90
6252;DHT22;3159;52.414;9.784;2023-07-24T03:20:20;19.50;99.90
6252;DHT22;3159;52.414;9.784;2023-07-24T03:22:47;19.60;99.90
6252;DHT22;3159;52.414;9.784;2023-07-24T03:25:14;19.50;99.90
6252;DHT22;3159;52.414;9.784;2023-07-24T03:27:42;19.60;99.90
6252;DHT22;3159;52.414;9.784;2023-07-24T03:30:10;19.60;99.90
6252;DHT22;3159;52.414;9.784;2023-07-24T03:32:37;19.60;99.90
6252;DHT22;3159;52.414;9.784;2023-07-24T03:35:05;19.70;99.90
6252;DHT22;3159;52.414;9.784;2023-07-24T03:37:32;19.70;99.90
6252;DHT22;3159;52.414;9.784;2023-07-24T03:39:58;19.70;99.90
6252;DHT22;3159;52.414;9.784;2023-07-24T03:42:27;19.70;99.90
6252;DHT22;3159;52.414;9.784;2023-07-24T03:44:57;19.70;99.90
6252;DHT22;3159;52.414;9.784;2023-07-24T03:47:24;19.80;99.90
6252;DHT22;3159;52.414;9.784;2023-07-24T03:49:51;19.80;99.90
6252;DHT22;3159;52.414;9.784;2023-07-24T03:52:18;19.90;99.90
6252;DHT22;3159;52.414;9.784;2023-07-24T03:54:45;20.00;99.90
6252;DHT22;3159;52.414;9.784;2023-07-24T03:57:12;20.00;99.90
6252;DHT22;3159;52.414;9.784;2023-07-24T03:59:39;20.00;99.90
6252;DHT22;3159;52.414;9.784;2023-07-24T04:02:07;20.00;99.90
6252;DHT22;3159;52.414;9.784;2023-07-24T04:04:34;20.00;99.90
6252;DHT22;3159;52.414;9.784;2023-07-24T04:07:01;20.00;99.90
6252;DHT22;3159;52.414;9.784;2023-07-24T04:09:28;20.00;99.90
6252;DHT22;3159;52.414;9.784;2023-07-24T04:11:55;19.90;99.90
6252;DHT22;3159;52.414;9.784;2023-07-24T04:14:22;19.90;99.90
6252;DHT22;3159;52.414;9.784;2023-07-24T04:16:49;19.90;99.90
6252;DHT22;3159;52.414;9.784;2023-07-24T04:19:17;19.90;99.90
6252;DHT22;3159;52.414;9.784;2023-07-24T04:21:44;19.90;99.90
6252;DHT22;3159;52.414;9.784;2023-07-24T04:24:11;19.80;99.90
6252;DHT22;3159;52.414;9.784;2023-07-24T04:26:38;19.70;99.90
6252;DHT22;3159;52.414;9.784;2023-07-24T04:29:05;19.60;99.90
6252;DHT22;3159;52.414;9.784;2023-07-24T04:31:32;19.60;99.90
6252;DHT22;3159;52.414;9.784;2023-07-24T04:33:59;19.70;99.90
6252;DHT22;3159;52.414;9.784;2023-07-24T04:36:28;19.80;99.90
6252;DHT22;3159;52.414;9.784;2023-07-24T04:38:54;19.80;99.90
6252;DHT22;3159;52.414;9.784;2023-07-24T04:41:21;19.70;99.90
6252;DHT22;3159;52.414;9.784;2023-07-24T04:43:48;19.80;99.90
6252;DHT22;3159;52.414;9.784;2023-07-24T04:46:15;19.80;99.90
6252;DHT22;3159;52.414;9.784;2023-07-24T04:48:42;19.80;99.90
6252;DHT22;3159;52.414;9.784;2023-07-24T04:51:09;19.70;99.90
6252;DHT22;3159;52.414;9.784;2023-07-24T04:53:37;19.70;99.90
6252;DHT22;3159;52.414;9.784;2023-07-24T04:56:04;19.80;99.90
6252;DHT22;3159;52.414;9.784;2023-07-24T04:58:31;20.00;99.90
6252;DHT22;3159;52.414;9.784;2023-07-24T05:01:02;20.10;99.90
6252;DHT22;3159;52.414;9.784;2023-07-24T05:03:29;20.00;99.90
6252;DHT22;3159;52.414;9.784;2023-07-24T05:05:56;19.90;99.90
6252;DHT22;3159;52.414;9.784;2023-07-24T05:08:23;19.90;99.90
6252;DHT22;3159;52.414;9.784;2023-07-24T05:10:55;19.90;99.90
6252;DHT22;3159;52.414;9.784;2023-07-24T05:13:22;19.90;99.90
6252;DHT22;3159;52.414;9.784;2023-07-24T05:15:49;19.80;99.90
6252;DHT22;3159;52.414;9.784;2023-07-24T05:18:16;19.90;99.90
6252;DHT22;3159;52.414;9.784;2023-07-24T05:20:44;19.60;99.90
6252;DHT22;3159;52.414;9.784;2023-07-24T05:23:12;19.60;99.90
6252;DHT22;3159;52.414;9.784;2023-07-24T05:25:41;19.80;99.90
6252;DHT22;3159;52.414;9.784;2023-07-24T05:28:10;20.00;99.90
6252;DHT22;3159;52.414;9.784;2023-07-24T05:30:36;20.20;99.90
6252;DHT22;3159;52.414;9.784;2023-07-24T05:33:03;20.30;99.90
6252;DHT22;3159;52.414;9.784;2023-07-24T05:35:30;20.30;99.90
6252;DHT22;3159;52.414;9.784;2023-07-24T05:37:57;20.30;99.90
6252;DHT22;3159;52.414;9.784;2023-07-24T05:40:24;20.40;99.90
6252;DHT22;3159;52.414;9.784;2023-07-24T05:42:51;20.40;99.90
6252;DHT22;3159;52.414;9.784;2023-07-24T05:45:19;20.20;99.90
6252;DHT22;3159;52.414;9.784;2023-07-24T05:47:46;20.20;99.90
6252;DHT22;3159;52.414;9.784;2023-07-24T05:50:13;20.10;99.90
6252;DHT22;3159;52.414;9.784;2023-07-24T05:52:40;20.00;99.90
6252;DHT22;3159;52.414;9.784;2023-07-24T05:55:08;20.00;99.90
6252;DHT22;3159;52.414;9.784;2023-07-24T05:57:35;20.00;99.90
6252;DHT22;3159;52.414;9.784;2023-07-24T06:00:02;20.00;99.90
6252;DHT22;3159;52.414;9.784;2023-07-24T06:02:30;19.90;99.90
6252;DHT22;3159;52.414;9.784;2023-07-24T06:04:57;19.90;99.90
6252;DHT22;3159;52.414;9.784;2023-07-24T06:07:24;19.80;99.90
6252;DHT22;3159;52.414;9.784;2023-07-24T06:09:51;19.80;99.90
6252;DHT22;3159;52.414;9.784;2023-07-24T06:12:18;19.90;99.90
6252;DHT22;3159;52.414;9.784;2023-07-24T06:14:45;19.70;99.90
6252;DHT22;3159;52.414;9.784;2023-07-24T06:17:12;19.60;99.90
6252;DHT22;3159;52.414;9.784;2023-07-24T06:19:40;19.60;99.90
6252;DHT22;3159;52.414;9.784;2023-07-24T06:22:07;19.40;99.90
6252;DHT22;3159;52.414;9.784;2023-07-24T06:24:34;19.50;99.90
6252;DHT22;3159;52.414;9.784;2023-07-24T06:27:01;19.50;99.90
6252;DHT22;3159;52.414;9.784;2023-07-24T06:29:28;19.40;99.90
6252;DHT22;3159;52.414;9.784;2023-07-24T06:31:55;19.30;99.90
6252;DHT22;3159;52.414;9.784;2023-07-24T06:34:22;19.30;99.90
6252;DHT22;3159;52.414;9.784;2023-07-24T06:36:50;19.40;99.90
6252;DHT22;3159;52.414;9.784;2023-07-24T06:39:17;19.50;99.90
6252;DHT22;3159;52.414;9.784;2023-07-24T06:41:44;19.50;99.90
6252;DHT22;3159;52.414;9.784;2023-07-24T06:44:11;19.60;99.90
6252;DHT22;3159;52.414;9.784;2023-07-24T06:46:38;19.60;99.90
6252;DHT22;3159;52.414;9.784;2023-07-24T06:49:05;19.70;99.90
6252;DHT22;3159;52.414;9.784;2023-07-24T06:51:32;19.60;99.90
6252;DHT22;3159;52.414;9.784;2023-07-24T06:54:00;19.80;99.90
6252;DHT22;3159;52.414;9.784;2023-07-24T06:56:28;19.70;99.90
6252;DHT22;3159;52.414;9.784;2023-07-24T06:58:55;19.70;99.90
6252;DHT22;3159;52.414;9.784;2023-07-24T07:01:22;19.70;99.90
6252;DHT22;3159;52.414;9.784;2023-07-24T07:03:49;19.60;99.90
6252;DHT22;3159;52.414;9.784;2023-07-24T07:06:16;19.60;99.90
6252;DHT22;3159;52.414;9.784;2023-07-24T07:08:43;19.70;99.90
6252;DHT22;3159;52.414;9.784;2023-07-24T07:11:11;19.70;99.90
6252;DHT22;3159;52.414;9.784;2023-07-24T07:13:38;19.90;99.90
6252;DHT22;3159;52.414;9.784;2023-07-24T07:16:05;20.10;99.90
6252;DHT22;3159;52.414;9.784;2023-07-24T07:18:32;20.10;99.90
6252;DHT22;3159;52.414;9.784;2023-07-24T07:20:59;20.20;99.90
6252;DHT22;3159;52.414;9.784;2023-07-24T07:23:26;20.20;99.90
6252;DHT22;3159;52.414;9.784;2023-07-24T07:25:52;20.30;99.90
6252;DHT22;3159;52.414;9.784;2023-07-24T07:28:21;20.40;99.90
6252;DHT22;3159;52.414;9.784;2023-07-24T07:30:47;20.50;99.90
6252;DHT22;3159;52.414;9.784;2023-07-24T07:33:14;20.50;99.90
6252;DHT22;3159;52.414;9.784;2023-07-24T07:35:42;20.40;99.90
6252;DHT22;3159;52.414;9.784;2023-07-24T07:38:09;20.20;99.90
6252;DHT22;3159;52.414;9.784;2023-07-24T07:40:37;20.00;99.90
6252;DHT22;3159;52.414;9.784;2023-07-24T07:43:05;20.00;99.90
6252;DHT22;3159;52.414;9.784;2023-07-24T07:45:33;20.00;99.90
6252;DHT22;3159;52.414;9.784;2023-07-24T07:48:00;19.90;99.90
6252;DHT22;3159;52.414;9.784;2023-07-24T07:50:27;19.90;99.90
6252;DHT22;3159;52.414;9.784;2023-07-24T07:52:54;19.90;99.90
6252;DHT22;3159;52.414;9.784;2023-07-24T07:55:21;20.00;99.90
6252;DHT22;3159;52.414;9.784;2023-07-24T07:57:47;20.00;99.90
6252;DHT22;3159;52.414;9.784;2023-07-24T08:00:15;20.00;99.90
6252;DHT22;3159;52.414;9.784;2023-07-24T08:02:43;20.00;99.90
6252;DHT22;3159;52.414;9.784;2023-07-24T08:05:11;20.10;99.90
6252;DHT22;3159;52.414;9.784;2023-07-24T08:07:38;20.10;99.90
6252;DHT22;3159;52.414;9.784;2023-07-24T08:10:05;20.20;99.90
6252;DHT22;3159;52.414;9.784;2023-07-24T08:12:33;20.30;99.90
6252;DHT22;3159;52.414;9.784;2023-07-24T08:15:00;20.20;99.90
6252;DHT22;3159;52.414;9.784;2023-07-24T08:17:26;20.30;99.90
6252;DHT22;3159;52.414;9.784;2023-07-24T08:19:55;20.70;99.90
6252;DHT22;3159;52.414;9.784;2023-07-24T08:22:22;20.70;99.90
6252;DHT22;3159;52.414;9.784;2023-07-24T08:24:49;20.80;99.90
6252;DHT22;3159;52.414;9.784;2023-07-24T08:27:16;20.70;99.90
6252;DHT22;3159;52.414;9.784;2023-07-24T08:29:43;20.50;99.90
6252;DHT22;3159;52.414;9.784;2023-07-24T08:32:10;20.40;99.90
6252;DHT22;3159;52.414;9.784;2023-07-24T08:34:38;20.50;99.90
6252;DHT22;3159;52.414;9.784;2023-07-24T08:37:06;20.40;99.90
6252;DHT22;3159;52.414;9.784;2023-07-24T08:39:33;20.30;99.90
6252;DHT22;3159;52.414;9.784;2023-07-24T08:42:08;20.40;99.90
6252;DHT22;3159;52.414;9.784;2023-07-24T08:44:35;20.20;99.90
6252;DHT22;3159;52.414;9.784;2023-07-24T08:47:03;20.30;99.90
6252;DHT22;3159;52.414;9.784;2023-07-24T08:49:32;20.20;99.90
6252;DHT22;3159;52.414;9.784;2023-07-24T08:52:01;20.40;99.90
6252;DHT22;3159;52.414;9.784;2023-07-24T08:54:31;20.40;99.90
6252;DHT22;3159;52.414;9.784;2023-07-24T08:56:59;20.70;99.90
6252;DHT22;3159;52.414;9.784;2023-07-24T08:59:27;21.00;99.90
6252;DHT22;3159;52.414;9.784;2023-07-24T09:01:56;21.40;99.90
6252;DHT22;3159;52.414;9.784;2023-07-24T09:04:24;21.50;99.90
6252;DHT22;3159;52.414;9.784;2023-07-24T09:06:51;21.80;99.90
6252;DHT22;3159;52.414;9.784;2023-07-24T09:09:18;21.50;99.90
6252;DHT22;3159;52.414;9.784;2023-07-24T09:11:48;21.70;99.90
6252;DHT22;3159;52.414;9.784;2023-07-24T09:14:22;21.70;99.90
6252;DHT22;3159;52.414;9.784;2023-07-24T09:16:50;22.10;99.90
6252;DHT22;3159;52.414;9.784;2023-07-24T09:19:27;22.20;99.90
6252;DHT22;3159;52.414;9.784;2023-07-24T09:21:54;21.90;99.90
6252;DHT22;3159;52.414;9.784;2023-07-24T09:24:21;21.90;99.90
6252;DHT22;3159;52.414;9.784;2023-07-24T09:26:51;21.70;99.90
6252;DHT22;3159;52.414;9.784;2023-07-24T09:29:18;21.40;99.90
6252;DHT22;3159;52.414;9.784;2023-07-24T09:31:45;21.40;99.90
6252;DHT22;3159;52.414;9.784;2023-07-24T09:34:18;21.60;99.90
6252;DHT22;3159;52.414;9.784;2023-07-24T09:36:45;21.70;99.90
6252;DHT22;3159;52.414;9.784;2023-07-24T09:39:12;21.60;99.90
6252;DHT22;3159;52.414;9.784;2023-07-24T09:41:39;21.70;99.90
6252;DHT22;3159;52.414;9.784;2023-07-24T09:44:11;21.80;99.90
6252;DHT22;3159;52.414;9.784;2023-07-24T09:46:38;21.40;99.90
6252;DHT22;3159;52.414;9.784;2023-07-24T09:49:05;21.60;99.90
6252;DHT22;3159;52.414;9.784;2023-07-24T09:51:32;22.10;99.90
6252;DHT22;3159;52.414;9.784;2023-07-24T09:54:05;22.20;99.90
6252;DHT22;3159;52.414;9.784;2023-07-24T09:56:33;22.10;99.90
6252;DHT22;3159;52.414;9.784;2023-07-24T09:59:02;22.10;99.90
6252;DHT22;3159;52.414;9.784;2023-07-24T10:01:31;22.20;99.90
6252;DHT22;3159;52.414;9.784;2023-07-24T10:03:59;22.10;99.90
6252;DHT22;3159;52.414;9.784;2023-07-24T10:06:27;22.40;99.90
6252;DHT22;3159;52.414;9.784;2023-07-24T10:08:56;23.00;99.90
6252;DHT22;3159;52.414;9.784;2023-07-24T10:11:23;23.40;99.90
6252;DHT22;3159;52.414;9.784;2023-07-24T10:13:51;24.00;99.90
6252;DHT22;3159;52.414;9.784;2023-07-24T10:16:19;23.40;99.90
6252;DHT22;3159;52.414;9.784;2023-07-24T10:18:48;23.40;99.90
6252;DHT22;3159;52.414;9.784;2023-07-24T10:21:16;23.60;99.90
6252;DHT22;3159;52.414;9.784;2023-07-24T10:23:44;23.80;99.90
6252;DHT22;3159;52.414;9.784;2023-07-24T10:26:12;23.60;99.90
6252;DHT22;3159;52.414;9.784;2023-07-24T10:28:40;23.80;99.90
6252;DHT22;3159;52.414;9.784;2023-07-24T10:31:19;24.10;99.90
6252;DHT22;3159;52.414;9.784;2023-07-24T10:33:48;23.90;99.90
6252;DHT22;3159;52.414;9.784;2023-07-24T10:36:17;23.90;99.90
6252;DHT22;3159;52.414;9.784;2023-07-24T10:38:46;24.10;99.90
6252;DHT22;3159;52.414;9.784;2023-07-24T10:41:13;23.60;99.90
6252;DHT22;3159;52.414;9.784;2023-07-24T10:43:41;24.20;99.90
6252;DHT22;3159;52.414;9.784;2023-07-24T10:46:08;24.00;99.90
6252;DHT22;3159;52.414;9.784;2023-07-24T10:48:35;23.80;99.90
6252;DHT22;3159;52.414;9.784;2023-07-24T10:51:08;24.10;99.90
6252;DHT22;3159;52.414;9.784;2023-07-24T10:53:36;24.60;99.90
6252;DHT22;3159;52.414;9.784;2023-07-24T10:56:03;24.70;99.90
6252;DHT22;3159;52.414;9.784;2023-07-24T10:58:31;24.70;99.90
6252;DHT22;3159;52.414;9.784;2023-07-24T11:00:58;24.40;99.90
6252;DHT22;3159;52.414;9.784;2023-07-24T11:03:26;24.50;99.90
6252;DHT22;3159;52.414;9.784;2023-07-24T11:05:54;24.80;99.90
6252;DHT22;3159;52.414;9.784;2023-07-24T11:08:23;24.60;99.90
6252;DHT22;3159;52.414;9.784;2023-07-24T11:10:51;25.20;99.90
6252;DHT22;3159;52.414;9.784;2023-07-24T11:13:20;25.20;99.90
6252;DHT22;3159;52.414;9.784;2023-07-24T11:15:48;25.40;99.90
6252;DHT22;3159;52.414;9.784;2023-07-24T11:18:16;25.30;99.90
6252;DHT22;3159;52.414;9.784;2023-07-24T11:20:47;25.50;99.90
6252;DHT22;3159;52.414;9.784;2023-07-24T11:23:14;25.10;99.90
6252;DHT22;3159;52.414;9.784;2023-07-24T11:25:43;25.20;99.90
6252;DHT22;3159;52.414;9.784;2023-07-24T11:28:12;25.40;99.90
6252;DHT22;3159;52.414;9.784;2023-07-24T11:30:39;25.50;99.90
6252;DHT22;3159;52.414;9.784;2023-07-24T11:33:09;25.70;99.90
6252;DHT22;3159;52.414;9.784;2023-07-24T11:35:37;25.40;99.90
6252;DHT22;3159;52.414;9.784;2023-07-24T11:38:04;25.00;99.90
6252;DHT22;3159;52.414;9.784;2023-07-24T11:40:32;25.00;99.90
6252;DHT22;3159;52.414;9.784;2023-07-24T11:43:02;24.50;99.90
6252;DHT22;3159;52.414;9.784;2023-07-24T11:45:29;24.00;99.90
6252;DHT22;3159;52.414;9.784;2023-07-24T11:47:56;23.80;99.90
6252;DHT22;3159;52.414;9.784;2023-07-24T11:50:24;23.60;99.90
6252;DHT22;3159;52.414;9.784;2023-07-24T11:52:51;23.20;99.90
6252;DHT22;3159;52.414;9.784;2023-07-24T11:55:19;23.20;99.90
6252;DHT22;3159;52.414;9.784;2023-07-24T11:57:56;23.20;99.90
6252;DHT22;3159;52.414;9.784;2023-07-24T12:00:25;23.10;99.90
6252;DHT22;3159;52.414;9.784;2023-07-24T12:02:53;23.20;99.90
6252;DHT22;3159;52.414;9.784;2023-07-24T12:05:20;24.20;99.90
6252;DHT22;3159;52.414;9.784;2023-07-24T12:07:47;24.20;99.90
6252;DHT22;3159;52.414;9.784;2023-07-24T12:10:25;24.40;99.90
6252;DHT22;3159;52.414;9.784;2023-07-24T12:12:53;24.70;99.90
6252;DHT22;3159;52.414;9.784;2023-07-24T12:15:20;24.30;99.90
6252;DHT22;3159;52.414;9.784;2023-07-24T12:17:48;23.90;99.90
6252;DHT22;3159;52.414;9.784;2023-07-24T12:20:15;23.60;99.90
6252;DHT22;3159;52.414;9.784;2023-07-24T12:22:42;23.30;99.90
6252;DHT22;3159;52.414;9.784;2023-07-24T12:25:09;23.20;99.90
6252;DHT22;3159;52.414;9.784;2023-07-24T12:27:36;22.90;99.90
6252;DHT22;3159;52.414;9.784;2023-07-24T12:30:06;22.90;99.90
6252;DHT22;3159;52.414;9.784;2023-07-24T12:32:33;22.80;99.90
6252;DHT22;3159;52.414;9.784;2023-07-24T12:35:01;22.80;99.90
6252;DHT22;3159;52.414;9.784;2023-07-24T12:37:28;22.60;99.90
6252;DHT22;3159;52.414;9.784;2023-07-24T12:39:55;22.50;99.90
6252;DHT22;3159;52.414;9.784;2023-07-24T12:42:22;22.40;99.90
6252;DHT22;3159;52.414;9.784;2023-07-24T12:44:49;22.40;99.90
6252;DHT22;3159;52.414;9.784;2023-07-24T12:47:16;22.20;99.90
6252;DHT22;3159;52.414;9.784;2023-07-24T12:49:43;22.20;99.90
6252;DHT22;3159;52.414;9.784;2023-07-24T12:52:11;22.10;99.90
6252;DHT22;3159;52.414;9.784;2023-07-24T12:54:38;22.00;99.90
6252;DHT22;3159;52.414;9.784;2023-07-24T12:57:05;22.00;99.90
6252;DHT22;3159;52.414;9.784;2023-07-24T12:59:32;22.00;99.90
6252;DHT22;3159;52.414;9.784;2023-07-24T13:01:59;22.00;99.90
6252;DHT22;3159;52.414;9.784;2023-07-24T13:04:26;22.10;99.90
6252;DHT22;3159;52.414;9.784;2023-07-24T13:06:53;22.30;99.90
6252;DHT22;3159;52.414;9.784;2023-07-24T13:09:21;22.10;99.90
6252;DHT22;3159;52.414;9.784;2023-07-24T13:11:49;22.20;99.90
6252;DHT22;3159;52.414;9.784;2023-07-24T13:14:17;22.30;99.90
6252;DHT22;3159;52.414;9.784;2023-07-24T13:16:44;22.50;99.90
6252;DHT22;3159;52.414;9.784;2023-07-24T13:19:11;22.50;99.90
6252;DHT22;3159;52.414;9.784;2023-07-24T13:21:38;22.80;99.90
6252;DHT22;3159;52.414;9.784;2023-07-24T13:24:05;22.80;99.90
6252;DHT22;3159;52.414;9.784;2023-07-24T13:26:34;22.80;99.90
6252;DHT22;3159;52.414;9.784;2023-07-24T13:29:02;22.70;99.90
6252;DHT22;3159;52.414;9.784;2023-07-24T13:31:31;22.90;99.90
6252;DHT22;3159;52.414;9.784;2023-07-24T13:33:59;23.10;99.90
6252;DHT22;3159;52.414;9.784;2023-07-24T13:36:26;22.90;99.90
6252;DHT22;3159;52.414;9.784;2023-07-24T13:38:52;22.90;99.90
6252;DHT22;3159;52.414;9.784;2023-07-24T13:41:19;22.70;99.90
6252;DHT22;3159;52.414;9.784;2023-07-24T13:43:48;22.60;99.90
6252;DHT22;3159;52.414;9.784;2023-07-24T13:46:15;22.50;99.90
6252;DHT22;3159;52.414;9.784;2023-07-24T13:48:42;22.40;99.90
6252;DHT22;3159;52.414;9.784;2023-07-24T13:51:09;22.30;99.90
6252;DHT22;3159;52.414;9.784;2023-07-24T13:53:36;22.40;99.90
6252;DHT22;3159;52.414;9.784;2023-07-24T13:56:03;22.10;99.90
6252;DHT22;3159;52.414;9.784;2023-07-24T13:58:30;22.00;99.90
6252;DHT22;3159;52.414;9.784;2023-07-24T14:00:59;21.90;99.90
6252;DHT22;3159;52.414;9.784;2023-07-24T14:03:26;21.90;99.90
6252;DHT22;3159;52.414;9.784;2023-07-24T14:05:55;22.00;99.90
6252;DHT22;3159;52.414;9.784;2023-07-24T14:08:22;21.90;99.90
6252;DHT22;3159;52.414;9.784;2023-07-24T14:10:49;21.80;99.90
6252;DHT22;3159;52.414;9.784;2023-07-24T14:13:16;21.40;99.90
6252;DHT22;3159;52.414;9.784;2023-07-24T14:15:43;21.40;99.90
6252;DHT22;3159;52.414;9.784;2023-07-24T14:18:12;21.20;99.90
6252;DHT22;3159;52.414;9.784;2023-07-24T14:20:39;21.00;99.90
6252;DHT22;3159;52.414;9.784;2023-07-24T14:23:06;21.00;99.90
6252;DHT22;3159;52.414;9.784;2023-07-24T14:25:34;20.90;99.90
6252;DHT22;3159;52.414;9.784;2023-07-24T14:28:01;20.80;99.90
6252;DHT22;3159;52.414;9.784;2023-07-24T14:30:28;20.60;99.90
6252;DHT22;3159;52.414;9.784;2023-07-24T14:32:55;20.60;99.90
6252;DHT22;3159;52.414;9.784;2023-07-24T14:35:23;20.50;99.90
6252;DHT22;3159;52.414;9.784;2023-07-24T14:37:50;20.40;99.90
6252;DHT22;3159;52.414;9.784;2023-07-24T14:40:18;20.60;99.90
6252;DHT22;3159;52.414;9.784;2023-07-24T14:42:45;20.50;99.90
6252;DHT22;3159;52.414;9.784;2023-07-24T14:45:12;20.40;99.90
6252;DHT22;3159;52.414;9.784;2023-07-24T14:47:39;20.40;99.90
6252;DHT22;3159;52.414;9.784;2023-07-24T14:50:06;20.30;99.90
6252;DHT22;3159;52.414;9.784;2023-07-24T14:52:35;20.30;99.90
6252;DHT22;3159;52.414;9.784;2023-07-24T14:55:03;20.40;99.90
6252;DHT22;3159;52.414;9.784;2023-07-24T14:57:31;20.20;99.90
6252;DHT22;3159;52.414;9.784;2023-07-24T14:59:58;20.20;99.90
6252;DHT22;3159;52.414;9.784;2023-07-24T15:02:25;20.20;99.90
6252;DHT22;3159;52.414;9.784;2023-07-24T15:04:52;20.10;99.90
6252;DHT22;3159;52.414;9.784;2023-07-24T15:07:19;20.20;99.90
6252;DHT22;3159;52.414;9.784;2023-07-24T15:09:47;20.10;99.90
6252;DHT22;3159;52.414;9.784;2023-07-24T15:12:14;20.30;99.90
6252;DHT22;3159;52.414;9.784;2023-07-24T15:14:41;20.40;99.90
6252;DHT22;3159;52.414;9.784;2023-07-24T15:17:07;20.50;99.90
6252;DHT22;3159;52.414;9.784;2023-07-24T15:19:34;20.30;99.90
6252;DHT22;3159;52.414;9.784;2023-07-24T15:22:01;20.30;99.90
6252;DHT22;3159;52.414;9.784;2023-07-24T15:24:28;20.40;99.90
6252;DHT22;3159;52.414;9.784;2023-07-24T15:26:56;20.60;99.90
6252;DHT22;3159;52.414;9.784;2023-07-24T15:29:23;20.70;99.90
6252;DHT22;3159;52.414;9.784;2023-07-24T15:31:50;20.70;99.90
6252;DHT22;3159;52.414;9.784;2023-07-24T15:34:17;20.60;99.90
6252;DHT22;3159;52.414;9.784;2023-07-24T15:36:44;20.80;99.90
6252;DHT22;3159;52.414;9.784;2023-07-24T15:39:11;20.60;99.90
6252;DHT22;3159;52.414;9.784;2023-07-24T15:41:38;20.70;99.90
6252;DHT22;3159;52.414;9.784;2023-07-24T15:44:06;21.00;99.90
6252;DHT22;3159;52.414;9.784;2023-07-24T15:46:33;21.20;99.90
6252;DHT22;3159;52.414;9.784;2023-07-24T15:49:00;21.40;99.90
6252;DHT22;3159;52.414;9.784;2023-07-24T15:51:27;21.70;99.90
6252;DHT22;3159;52.414;9.784;2023-07-24T15:53:55;21.60;99.90
6252;DHT22;3159;52.414;9.784;2023-07-24T15:56:22;21.70;99.90
6252;DHT22;3159;52.414;9.784;2023-07-24T15:58:50;21.90;99.90
6252;DHT22;3159;52.414;9.784;2023-07-24T16:01:18;21.90;99.90
6252;DHT22;3159;52.414;9.784;2023-07-24T16:03:45;21.90;99.90